sensor_id;sensor_type;location;lat;lon;timestamp;P1;durP1;ratioP1;P2;durP2;ratioP2
3081;SDS011;1551;51.046;7.010;2022-07-23T00:02:32;16.83;;;14.15;;
3081;SDS011;1551;51.046;7.010;2022-07-23T00:05:21;15.93;;;14.23;;
3081;SDS011;1551;51.046;7.010;2022-07-23T00:08:10;18.75;;;16.75;;
3081;SDS011;1551;51.046;7.010;2022-07-23T00:10:59;16.42;;;14.48;;
3081;SDS011;1551;51.046;7.010;2022-07-23T00:13:49;18.30;;;16.50;;
3081;SDS011;1551;51.046;7.010;2022-07-23T00:16:38;19.27;;;16.80;;
3081;SDS011;1551;51.046;7.010;2022-07-23T00:19:27;18.77;;;16.88;;
3081;SDS011;1551;51.046;7.010;2022-07-23T00:22:17;16.67;;;14.47;;
3081;SDS011;1551;51.046;7.010;2022-07-23T00:25:06;20.40;;;17.60;;
3081;SDS011;1551;51.046;7.010;2022-07-23T00:27:56;20.70;;;17.05;;
3081;SDS011;1551;51.046;7.010;2022-07-23T00:30:46;21.98;;;18.63;;
3081;SDS011;1551;51.046;7.010;2022-07-23T00:33:35;22.23;;;18.63;;
3081;SDS011;1551;51.046;7.010;2022-07-23T00:36:24;15.88;;;13.90;;
3081;SDS011;1551;51.046;7.010;2022-07-23T00:39:13;17.83;;;14.93;;
3081;SDS011;1551;51.046;7.010;2022-07-23T00:42:02;15.65;;;14.05;;
3081;SDS011;1551;51.046;7.010;2022-07-23T00:44:51;18.83;;;16.83;;
3081;SDS011;1551;51.046;7.010;2022-07-23T00:47:40;17.63;;;15.90;;
3081;SDS011;1551;51.046;7.010;2022-07-23T00:50:29;16.80;;;14.30;;
3081;SDS011;1551;51.046;7.010;2022-07-23T00:53:18;16.73;;;14.75;;
3081;SDS011;1551;51.046;7.010;2022-07-23T00:56:08;18.95;;;16.20;;
3081;SDS011;1551;51.046;7.010;2022-07-23T00:58:57;16.08;;;14.35;;
3081;SDS011;1551;51.046;7.010;2022-07-23T01:01:48;14.07;;;12.60;;
3081;SDS011;1551;51.046;7.010;2022-07-23T01:04:37;14.23;;;12.70;;
3081;SDS011;1551;51.046;7.010;2022-07-23T01:07:26;14.80;;;12.80;;
3081;SDS011;1551;51.046;7.010;2022-07-23T01:10:16;15.80;;;13.93;;
3081;SDS011;1551;51.046;7.010;2022-07-23T01:13:21;16.55;;;13.75;;
3081;SDS011;1551;51.046;7.010;2022-07-23T01:16:10;14.80;;;13.00;;
3081;SDS011;1551;51.046;7.010;2022-07-23T01:19:00;16.02;;;13.07;;
3081;SDS011;1551;51.046;7.010;2022-07-23T01:21:50;17.17;;;14.00;;
3081;SDS011;1551;51.046;7.010;2022-07-23T01:24:39;16.35;;;13.85;;
3081;SDS011;1551;51.046;7.010;2022-07-23T01:27:29;14.98;;;13.38;;
3081;SDS011;1551;51.046;7.010;2022-07-23T01:30:24;16.10;;;13.75;;
3081;SDS011;1551;51.046;7.010;2022-07-23T01:33:14;15.48;;;12.95;;
3081;SDS011;1551;51.046;7.010;2022-07-23T01:36:04;14.70;;;12.85;;
3081;SDS011;1551;51.046;7.010;2022-07-23T01:38:53;13.05;;;10.90;;
3081;SDS011;1551;51.046;7.010;2022-07-23T01:41:43;12.63;;;11.32;;
3081;SDS011;1551;51.046;7.010;2022-07-23T01:44:33;11.18;;;10.00;;
3081;SDS011;1551;51.046;7.010;2022-07-23T01:47:21;12.10;;;10.88;;
3081;SDS011;1551;51.046;7.010;2022-07-23T01:50:14;12.23;;;10.93;;
3081;SDS011;1551;51.046;7.010;2022-07-23T01:53:10;13.60;;;12.20;;
3081;SDS011;1551;51.046;7.010;2022-07-23T01:56:00;14.90;;;13.27;;
3081;SDS011;1551;51.046;7.010;2022-07-23T01:58:49;11.70;;;10.50;;
3081;SDS011;1551;51.046;7.010;2022-07-23T02:01:39;16.08;;;12.10;;
3081;SDS011;1551;51.046;7.010;2022-07-23T02:04:28;15.75;;;12.10;;
3081;SDS011;1551;51.046;7.010;2022-07-23T02:07:17;11.15;;;9.90;;
3081;SDS011;1551;51.046;7.010;2022-07-23T02:10:06;12.32;;;10.45;;
3081;SDS011;1551;51.046;7.010;2022-07-23T02:12:56;14.15;;;12.15;;
3081;SDS011;1551;51.046;7.010;2022-07-23T02:15:45;16.40;;;12.85;;
3081;SDS011;1551;51.046;7.010;2022-07-23T02:18:36;15.15;;;11.98;;
3081;SDS011;1551;51.046;7.010;2022-07-23T02:21:25;15.48;;;13.10;;
3081;SDS011;1551;51.046;7.010;2022-07-23T02:24:15;14.07;;;11.45;;
3081;SDS011;1551;51.046;7.010;2022-07-23T02:27:05;16.08;;;13.75;;
3081;SDS011;1551;51.046;7.010;2022-07-23T02:29:54;11.82;;;9.98;;
3081;SDS011;1551;51.046;7.010;2022-07-23T02:32:43;11.00;;;9.75;;
3081;SDS011;1551;51.046;7.010;2022-07-23T02:35:33;10.77;;;9.68;;
3081;SDS011;1551;51.046;7.010;2022-07-23T02:38:24;15.45;;;13.85;;
3081;SDS011;1551;51.046;7.010;2022-07-23T02:41:13;16.27;;;13.52;;
3081;SDS011;1551;51.046;7.010;2022-07-23T02:44:03;18.17;;;14.55;;
3081;SDS011;1551;51.046;7.010;2022-07-23T02:46:53;16.52;;;13.63;;
3081;SDS011;1551;51.046;7.010;2022-07-23T02:49:42;13.25;;;11.65;;
3081;SDS011;1551;51.046;7.010;2022-07-23T02:52:31;13.40;;;11.00;;
3081;SDS011;1551;51.046;7.010;2022-07-23T02:55:20;11.07;;;9.88;;
3081;SDS011;1551;51.046;7.010;2022-07-23T02:58:09;15.05;;;11.68;;
3081;SDS011;1551;51.046;7.010;2022-07-23T03:00:58;11.60;;;9.75;;
3081;SDS011;1551;51.046;7.010;2022-07-23T03:03:48;16.70;;;13.82;;
3081;SDS011;1551;51.046;7.010;2022-07-23T03:06:37;16.73;;;14.27;;
3081;SDS011;1551;51.046;7.010;2022-07-23T03:09:26;14.60;;;12.63;;
3081;SDS011;1551;51.046;7.010;2022-07-23T03:12:15;16.48;;;14.20;;
3081;SDS011;1551;51.046;7.010;2022-07-23T03:15:04;17.30;;;15.50;;
3081;SDS011;1551;51.046;7.010;2022-07-23T03:17:54;16.23;;;14.20;;
3081;SDS011;1551;51.046;7.010;2022-07-23T03:20:43;15.38;;;12.40;;
3081;SDS011;1551;51.046;7.010;2022-07-23T03:23:33;19.90;;;15.48;;
3081;SDS011;1551;51.046;7.010;2022-07-23T03:26:22;12.43;;;10.10;;
3081;SDS011;1551;51.046;7.010;2022-07-23T03:29:14;11.00;;;9.60;;
3081;SDS011;1551;51.046;7.010;2022-07-23T03:32:05;12.30;;;9.87;;
3081;SDS011;1551;51.046;7.010;2022-07-23T03:34:54;11.57;;;10.38;;
3081;SDS011;1551;51.046;7.010;2022-07-23T03:37:43;11.45;;;10.25;;
3081;SDS011;1551;51.046;7.010;2022-07-23T03:40:33;12.45;;;11.15;;
3081;SDS011;1551;51.046;7.010;2022-07-23T03:43:22;14.55;;;12.13;;
3081;SDS011;1551;51.046;7.010;2022-07-23T03:46:14;14.43;;;12.00;;
3081;SDS011;1551;51.046;7.010;2022-07-23T03:49:04;14.27;;;11.52;;
3081;SDS011;1551;51.046;7.010;2022-07-23T03:51:52;14.25;;;12.00;;
3081;SDS011;1551;51.046;7.010;2022-07-23T03:54:41;14.83;;;12.03;;
3081;SDS011;1551;51.046;7.010;2022-07-23T03:57:30;12.80;;;11.23;;
3081;SDS011;1551;51.046;7.010;2022-07-23T04:00:19;14.68;;;12.40;;
3081;SDS011;1551;51.046;7.010;2022-07-23T04:03:12;14.88;;;13.38;;
3081;SDS011;1551;51.046;7.010;2022-07-23T04:06:02;13.60;;;12.20;;
3081;SDS011;1551;51.046;7.010;2022-07-23T04:08:52;16.45;;;14.27;;
3081;SDS011;1551;51.046;7.010;2022-07-23T04:11:41;15.57;;;13.82;;
3081;SDS011;1551;51.046;7.010;2022-07-23T04:14:31;17.08;;;14.43;;
3081;SDS011;1551;51.046;7.010;2022-07-23T04:17:20;18.00;;;14.07;;
3081;SDS011;1551;51.046;7.010;2022-07-23T04:20:09;14.45;;;12.50;;
3081;SDS011;1551;51.046;7.010;2022-07-23T04:23:06;13.73;;;12.32;;
3081;SDS011;1551;51.046;7.010;2022-07-23T04:25:56;13.18;;;11.40;;
3081;SDS011;1551;51.046;7.010;2022-07-23T04:28:46;14.53;;;12.13;;
3081;SDS011;1551;51.046;7.010;2022-07-23T04:31:35;13.50;;;12.10;;
3081;SDS011;1551;51.046;7.010;2022-07-23T04:34:24;14.32;;;12.93;;
3081;SDS011;1551;51.046;7.010;2022-07-23T04:37:15;15.57;;;12.27;;
3081;SDS011;1551;51.046;7.010;2022-07-23T04:40:04;16.85;;;12.88;;
3081;SDS011;1551;51.046;7.010;2022-07-23T04:42:53;15.70;;;13.40;;
3081;SDS011;1551;51.046;7.010;2022-07-23T04:45:43;13.18;;;11.10;;
3081;SDS011;1551;51.046;7.010;2022-07-23T04:48:32;13.53;;;10.97;;
3081;SDS011;1551;51.046;7.010;2022-07-23T04:51:30;13.50;;;11.88;;
3081;SDS011;1551;51.046;7.010;2022-07-23T04:54:19;14.68;;;11.98;;
3081;SDS011;1551;51.046;7.010;2022-07-23T04:57:08;14.43;;;12.87;;
3081;SDS011;1551;51.046;7.010;2022-07-23T04:59:57;12.90;;;11.50;;
3081;SDS011;1551;51.046;7.010;2022-07-23T05:02:47;14.10;;;11.90;;
3081;SDS011;1551;51.046;7.010;2022-07-23T05:05:36;10.23;;;8.88;;
3081;SDS011;1551;51.046;7.010;2022-07-23T05:08:34;16.60;;;12.98;;
3081;SDS011;1551;51.046;7.010;2022-07-23T05:11:23;13.40;;;10.60;;
3081;SDS011;1551;51.046;7.010;2022-07-23T05:14:12;13.60;;;12.13;;
3081;SDS011;1551;51.046;7.010;2022-07-23T05:17:01;13.37;;;11.23;;
3081;SDS011;1551;51.046;7.010;2022-07-23T05:19:51;14.15;;;11.70;;
3081;SDS011;1551;51.046;7.010;2022-07-23T05:22:40;11.45;;;9.75;;
3081;SDS011;1551;51.046;7.010;2022-07-23T05:25:29;13.97;;;11.70;;
3081;SDS011;1551;51.046;7.010;2022-07-23T05:28:18;14.60;;;11.52;;
3081;SDS011;1551;51.046;7.010;2022-07-23T05:31:07;10.90;;;9.30;;
3081;SDS011;1551;51.046;7.010;2022-07-23T05:33:57;12.20;;;10.57;;
3081;SDS011;1551;51.046;7.010;2022-07-23T05:36:48;13.88;;;11.30;;
3081;SDS011;1551;51.046;7.010;2022-07-23T05:39:37;12.15;;;10.80;;
3081;SDS011;1551;51.046;7.010;2022-07-23T05:42:26;12.15;;;10.75;;
3081;SDS011;1551;51.046;7.010;2022-07-23T05:45:15;11.18;;;9.60;;
3081;SDS011;1551;51.046;7.010;2022-07-23T05:48:08;15.90;;;12.30;;
3081;SDS011;1551;51.046;7.010;2022-07-23T05:51:05;14.20;;;12.70;;
3081;SDS011;1551;51.046;7.010;2022-07-23T05:53:55;14.90;;;12.32;;
3081;SDS011;1551;51.046;7.010;2022-07-23T05:56:47;14.60;;;12.57;;
3081;SDS011;1551;51.046;7.010;2022-07-23T05:59:36;13.80;;;11.90;;
3081;SDS011;1551;51.046;7.010;2022-07-23T06:02:25;12.67;;;9.90;;
3081;SDS011;1551;51.046;7.010;2022-07-23T06:05:15;12.85;;;11.55;;
3081;SDS011;1551;51.046;7.010;2022-07-23T06:08:04;16.23;;;12.13;;
3081;SDS011;1551;51.046;7.010;2022-07-23T06:10:53;12.10;;;10.50;;
3081;SDS011;1551;51.046;7.010;2022-07-23T06:13:42;12.52;;;10.18;;
3081;SDS011;1551;51.046;7.010;2022-07-23T06:16:32;12.10;;;9.50;;
3081;SDS011;1551;51.046;7.010;2022-07-23T06:19:21;15.05;;;12.18;;
3081;SDS011;1551;51.046;7.010;2022-07-23T06:22:10;16.40;;;12.13;;
3081;SDS011;1551;51.046;7.010;2022-07-23T06:24:59;14.02;;;10.65;;
3081;SDS011;1551;51.046;7.010;2022-07-23T06:27:48;18.27;;;13.48;;
3081;SDS011;1551;51.046;7.010;2022-07-23T06:30:38;12.48;;;10.52;;
3081;SDS011;1551;51.046;7.010;2022-07-23T06:33:28;12.00;;;9.70;;
3081;SDS011;1551;51.046;7.010;2022-07-23T06:36:17;10.35;;;9.25;;
3081;SDS011;1551;51.046;7.010;2022-07-23T06:39:06;11.52;;;10.32;;
3081;SDS011;1551;51.046;7.010;2022-07-23T06:41:55;16.65;;;12.80;;
3081;SDS011;1551;51.046;7.010;2022-07-23T06:44:57;16.92;;;13.55;;
3081;SDS011;1551;51.046;7.010;2022-07-23T06:47:46;13.95;;;11.82;;
3081;SDS011;1551;51.046;7.010;2022-07-23T06:50:35;14.23;;;11.38;;
3081;SDS011;1551;51.046;7.010;2022-07-23T06:53:24;12.50;;;9.65;;
3081;SDS011;1551;51.046;7.010;2022-07-23T06:56:13;15.60;;;11.02;;
3081;SDS011;1551;51.046;7.010;2022-07-23T06:59:02;14.50;;;11.18;;
3081;SDS011;1551;51.046;7.010;2022-07-23T07:01:52;12.07;;;9.50;;
3081;SDS011;1551;51.046;7.010;2022-07-23T07:04:41;8.70;;;7.60;;
3081;SDS011;1551;51.046;7.010;2022-07-23T07:07:30;10.67;;;8.67;;
3081;SDS011;1551;51.046;7.010;2022-07-23T07:10:19;10.30;;;8.23;;
3081;SDS011;1551;51.046;7.010;2022-07-23T07:13:08;13.05;;;10.35;;
3081;SDS011;1551;51.046;7.010;2022-07-23T07:15:56;10.70;;;8.13;;
3081;SDS011;1551;51.046;7.010;2022-07-23T07:18:45;13.35;;;10.02;;
3081;SDS011;1551;51.046;7.010;2022-07-23T07:21:34;10.70;;;9.00;;
3081;SDS011;1551;51.046;7.010;2022-07-23T07:24:24;8.45;;;7.50;;
3081;SDS011;1551;51.046;7.010;2022-07-23T07:27:12;11.02;;;8.98;;
3081;SDS011;1551;51.046;7.010;2022-07-23T07:30:02;9.13;;;8.23;;
3081;SDS011;1551;51.046;7.010;2022-07-23T07:32:53;9.27;;;7.68;;
3081;SDS011;1551;51.046;7.010;2022-07-23T07:35:42;9.57;;;8.38;;
3081;SDS011;1551;51.046;7.010;2022-07-23T07:38:30;8.55;;;7.43;;
3081;SDS011;1551;51.046;7.010;2022-07-23T07:41:19;10.18;;;8.50;;
3081;SDS011;1551;51.046;7.010;2022-07-23T07:44:12;8.75;;;7.20;;
3081;SDS011;1551;51.046;7.010;2022-07-23T07:47:01;9.32;;;7.90;;
3081;SDS011;1551;51.046;7.010;2022-07-23T07:49:50;7.80;;;6.70;;
3081;SDS011;1551;51.046;7.010;2022-07-23T07:52:39;11.38;;;7.80;;
3081;SDS011;1551;51.046;7.010;2022-07-23T07:55:28;9.93;;;8.20;;
3081;SDS011;1551;51.046;7.010;2022-07-23T07:58:17;12.73;;;9.60;;
3081;SDS011;1551;51.046;7.010;2022-07-23T08:01:07;11.80;;;9.30;;
3081;SDS011;1551;51.046;7.010;2022-07-23T08:03:55;10.82;;;9.05;;
3081;SDS011;1551;51.046;7.010;2022-07-23T08:06:44;10.80;;;8.47;;
3081;SDS011;1551;51.046;7.010;2022-07-23T08:09:33;13.90;;;9.90;;
3081;SDS011;1551;51.046;7.010;2022-07-23T08:12:22;11.40;;;7.95;;
3081;SDS011;1551;51.046;7.010;2022-07-23T08:15:12;11.40;;;9.00;;
3081;SDS011;1551;51.046;7.010;2022-07-23T08:18:02;10.30;;;7.45;;
3081;SDS011;1551;51.046;7.010;2022-07-23T08:20:51;10.57;;;8.67;;
3081;SDS011;1551;51.046;7.010;2022-07-23T08:23:39;8.82;;;7.82;;
3081;SDS011;1551;51.046;7.010;2022-07-23T08:26:28;7.70;;;6.88;;
3081;SDS011;1551;51.046;7.010;2022-07-23T08:29:17;9.30;;;7.10;;
3081;SDS011;1551;51.046;7.010;2022-07-23T08:32:06;8.57;;;6.70;;
3081;SDS011;1551;51.046;7.010;2022-07-23T08:34:55;9.10;;;7.00;;
3081;SDS011;1551;51.046;7.010;2022-07-23T08:37:44;10.10;;;6.33;;
3081;SDS011;1551;51.046;7.010;2022-07-23T08:40:34;8.25;;;6.50;;
3081;SDS011;1551;51.046;7.010;2022-07-23T08:43:26;7.55;;;6.75;;
3081;SDS011;1551;51.046;7.010;2022-07-23T08:46:17;9.10;;;7.43;;
3081;SDS011;1551;51.046;7.010;2022-07-23T08:49:08;9.15;;;7.47;;
3081;SDS011;1551;51.046;7.010;2022-07-23T08:51:57;7.25;;;5.80;;
3081;SDS011;1551;51.046;7.010;2022-07-23T08:54:46;9.32;;;7.32;;
3081;SDS011;1551;51.046;7.010;2022-07-23T08:57:35;13.05;;;9.80;;
3081;SDS011;1551;51.046;7.010;2022-07-23T09:00:24;10.13;;;7.27;;
3081;SDS011;1551;51.046;7.010;2022-07-23T09:03:20;8.45;;;7.10;;
3081;SDS011;1551;51.046;7.010;2022-07-23T09:06:11;6.70;;;5.95;;
3081;SDS011;1551;51.046;7.010;2022-07-23T09:09:00;8.70;;;6.93;;
3081;SDS011;1551;51.046;7.010;2022-07-23T09:12:06;10.53;;;9.43;;
3081;SDS011;1551;51.046;7.010;2022-07-23T09:14:57;9.45;;;8.18;;
3081;SDS011;1551;51.046;7.010;2022-07-23T09:17:53;10.15;;;9.00;;
3081;SDS011;1551;51.046;7.010;2022-07-23T09:20:44;10.90;;;9.80;;
3081;SDS011;1551;51.046;7.010;2022-07-23T09:23:41;9.32;;;8.10;;
3081;SDS011;1551;51.046;7.010;2022-07-23T09:26:36;9.02;;;7.40;;
3081;SDS011;1551;51.046;7.010;2022-07-23T09:29:26;9.68;;;8.73;;
3081;SDS011;1551;51.046;7.010;2022-07-23T09:32:15;10.55;;;7.65;;
3081;SDS011;1551;51.046;7.010;2022-07-23T09:35:05;9.35;;;7.88;;
3081;SDS011;1551;51.046;7.010;2022-07-23T09:38:00;8.98;;;7.70;;
3081;SDS011;1551;51.046;7.010;2022-07-23T09:41:06;9.43;;;8.13;;
3081;SDS011;1551;51.046;7.010;2022-07-23T09:43:59;9.30;;;8.10;;
3081;SDS011;1551;51.046;7.010;2022-07-23T09:46:57;9.30;;;8.45;;
3081;SDS011;1551;51.046;7.010;2022-07-23T09:50:02;9.10;;;8.20;;
3081;SDS011;1551;51.046;7.010;2022-07-23T09:52:53;10.68;;;9.57;;
3081;SDS011;1551;51.046;7.010;2022-07-23T09:55:42;11.45;;;8.85;;
3081;SDS011;1551;51.046;7.010;2022-07-23T09:58:31;7.90;;;7.10;;
3081;SDS011;1551;51.046;7.010;2022-07-23T10:01:20;8.52;;;7.72;;
3081;SDS011;1551;51.046;7.010;2022-07-23T10:04:10;9.40;;;7.00;;
3081;SDS011;1551;51.046;7.010;2022-07-23T10:07:27;10.52;;;8.38;;
3081;SDS011;1551;51.046;7.010;2022-07-23T10:10:35;9.55;;;8.50;;
3081;SDS011;1551;51.046;7.010;2022-07-23T10:13:44;9.18;;;7.72;;
3081;SDS011;1551;51.046;7.010;2022-07-23T10:16:36;10.70;;;7.85;;
3081;SDS011;1551;51.046;7.010;2022-07-23T10:19:27;9.50;;;8.60;;
3081;SDS011;1551;51.046;7.010;2022-07-23T10:22:21;10.52;;;8.73;;
3081;SDS011;1551;51.046;7.010;2022-07-23T10:25:27;8.40;;;7.50;;
3081;SDS011;1551;51.046;7.010;2022-07-23T10:31:54;9.10;;;7.93;;
3081;SDS011;1551;51.046;7.010;2022-07-23T10:35:05;7.88;;;7.07;;
3081;SDS011;1551;51.046;7.010;2022-07-23T10:38:13;9.18;;;8.27;;
3081;SDS011;1551;51.046;7.010;2022-07-23T10:41:09;7.60;;;7.00;;
3081;SDS011;1551;51.046;7.010;2022-07-23T10:47:04;8.20;;;7.20;;
3081;SDS011;1551;51.046;7.010;2022-07-23T10:50:21;8.25;;;7.45;;
3081;SDS011;1551;51.046;7.010;2022-07-23T10:53:16;8.25;;;7.50;;
3081;SDS011;1551;51.046;7.010;2022-07-23T10:56:06;8.60;;;5.80;;
3081;SDS011;1551;51.046;7.010;2022-07-23T10:58:56;6.30;;;5.70;;
3081;SDS011;1551;51.046;7.010;2022-07-23T11:01:52;7.50;;;6.80;;
3081;SDS011;1551;51.046;7.010;2022-07-23T11:04:50;7.07;;;6.47;;
3081;SDS011;1551;51.046;7.010;2022-07-23T11:10:53;6.10;;;5.50;;
3081;SDS011;1551;51.046;7.010;2022-07-23T11:13:45;7.15;;;5.53;;
3081;SDS011;1551;51.046;7.010;2022-07-23T11:16:41;6.40;;;5.80;;
3081;SDS011;1551;51.046;7.010;2022-07-23T11:20:12;6.68;;;6.07;;
3081;SDS011;1551;51.046;7.010;2022-07-23T11:22:58;8.80;;;8.00;;
3081;SDS011;1551;51.046;7.010;2022-07-23T11:25:48;7.30;;;6.40;;
3081;SDS011;1551;51.046;7.010;2022-07-23T11:28:37;4.80;;;4.40;;
3081;SDS011;1551;51.046;7.010;2022-07-23T11:31:26;5.93;;;5.40;;
3081;SDS011;1551;51.046;7.010;2022-07-23T11:34:34;5.30;;;4.90;;
3081;SDS011;1551;51.046;7.010;2022-07-23T11:40:18;5.20;;;4.70;;
3081;SDS011;1551;51.046;7.010;2022-07-23T11:43:07;6.53;;;5.75;;
3081;SDS011;1551;51.046;7.010;2022-07-23T11:45:58;5.90;;;5.30;;
3081;SDS011;1551;51.046;7.010;2022-07-23T11:49:00;7.00;;;6.30;;
3081;SDS011;1551;51.046;7.010;2022-07-23T11:54:59;7.60;;;6.57;;
3081;SDS011;1551;51.046;7.010;2022-07-23T11:57:52;7.40;;;6.70;;
3081;SDS011;1551;51.046;7.010;2022-07-23T12:00:42;6.97;;;6.38;;
3081;SDS011;1551;51.046;7.010;2022-07-23T12:03:31;8.85;;;8.05;;
3081;SDS011;1551;51.046;7.010;2022-07-23T12:06:19;8.15;;;6.97;;
3081;SDS011;1551;51.046;7.010;2022-07-23T12:09:08;6.63;;;5.75;;
3081;SDS011;1551;51.046;7.010;2022-07-23T12:11:59;6.65;;;6.00;;
3081;SDS011;1551;51.046;7.010;2022-07-23T12:14:58;6.00;;;5.50;;
3081;SDS011;1551;51.046;7.010;2022-07-23T12:17:47;6.78;;;6.18;;
3081;SDS011;1551;51.046;7.010;2022-07-23T12:20:39;7.07;;;6.47;;
3081;SDS011;1551;51.046;7.010;2022-07-23T12:23:30;8.00;;;6.40;;
3081;SDS011;1551;51.046;7.010;2022-07-23T12:26:19;7.50;;;5.72;;
3081;SDS011;1551;51.046;7.010;2022-07-23T12:29:08;7.35;;;6.72;;
3081;SDS011;1551;51.046;7.010;2022-07-23T12:31:57;6.90;;;6.20;;
3081;SDS011;1551;51.046;7.010;2022-07-23T12:34:47;8.80;;;6.70;;
3081;SDS011;1551;51.046;7.010;2022-07-23T12:37:39;6.40;;;5.80;;
3081;SDS011;1551;51.046;7.010;2022-07-23T12:40:31;6.88;;;5.72;;
3081;SDS011;1551;51.046;7.010;2022-07-23T12:43:29;6.00;;;5.00;;
3081;SDS011;1551;51.046;7.010;2022-07-23T12:46:20;7.00;;;6.30;;
3081;SDS011;1551;51.046;7.010;2022-07-23T12:49:10;6.70;;;5.97;;
3081;SDS011;1551;51.046;7.010;2022-07-23T12:51:59;7.95;;;7.15;;
3081;SDS011;1551;51.046;7.010;2022-07-23T12:54:47;6.68;;;5.97;;
3081;SDS011;1551;51.046;7.010;2022-07-23T12:57:46;6.97;;;5.40;;
3081;SDS011;1551;51.046;7.010;2022-07-23T13:00:58;5.57;;;4.93;;
3081;SDS011;1551;51.046;7.010;2022-07-23T13:06:55;5.30;;;4.80;;
3081;SDS011;1551;51.046;7.010;2022-07-23T13:09:46;5.50;;;4.90;;
3081;SDS011;1551;51.046;7.010;2022-07-23T13:12:35;5.80;;;4.80;;
3081;SDS011;1551;51.046;7.010;2022-07-23T13:15:24;4.70;;;4.30;;
3081;SDS011;1551;51.046;7.010;2022-07-23T13:18:13;5.80;;;5.20;;
3081;SDS011;1551;51.046;7.010;2022-07-23T13:21:02;7.25;;;5.10;;
3081;SDS011;1551;51.046;7.010;2022-07-23T13:23:51;5.45;;;4.60;;
3081;SDS011;1551;51.046;7.010;2022-07-23T13:26:40;4.57;;;4.18;;
3081;SDS011;1551;51.046;7.010;2022-07-23T13:29:30;4.72;;;4.07;;
3081;SDS011;1551;51.046;7.010;2022-07-23T13:32:19;4.33;;;3.93;;
3081;SDS011;1551;51.046;7.010;2022-07-23T13:35:08;4.45;;;3.65;;
3081;SDS011;1551;51.046;7.010;2022-07-23T13:37:57;3.85;;;3.40;;
3081;SDS011;1551;51.046;7.010;2022-07-23T13:40:47;4.57;;;3.20;;
3081;SDS011;1551;51.046;7.010;2022-07-23T13:43:38;4.32;;;3.30;;
3081;SDS011;1551;51.046;7.010;2022-07-23T13:46:26;5.03;;;3.70;;
3081;SDS011;1551;51.046;7.010;2022-07-23T13:49:15;3.67;;;3.30;;
3081;SDS011;1551;51.046;7.010;2022-07-23T13:52:04;4.53;;;3.60;;
3081;SDS011;1551;51.046;7.010;2022-07-23T13:54:53;5.32;;;3.92;;
3081;SDS011;1551;51.046;7.010;2022-07-23T13:57:42;4.47;;;3.65;;
3081;SDS011;1551;51.046;7.010;2022-07-23T14:00:32;4.30;;;3.35;;
3081;SDS011;1551;51.046;7.010;2022-07-23T14:03:22;4.20;;;3.10;;
3081;SDS011;1551;51.046;7.010;2022-07-23T14:06:12;4.43;;;3.22;;
3081;SDS011;1551;51.046;7.010;2022-07-23T14:09:01;3.90;;;3.42;;
3081;SDS011;1551;51.046;7.010;2022-07-23T14:11:50;3.50;;;2.90;;
3081;SDS011;1551;51.046;7.010;2022-07-23T14:14:40;3.50;;;3.13;;
3081;SDS011;1551;51.046;7.010;2022-07-23T14:17:29;4.00;;;2.83;;
3081;SDS011;1551;51.046;7.010;2022-07-23T14:20:18;3.80;;;3.40;;
3081;SDS011;1551;51.046;7.010;2022-07-23T14:23:07;3.60;;;3.30;;
3081;SDS011;1551;51.046;7.010;2022-07-23T14:25:56;4.00;;;3.38;;
3081;SDS011;1551;51.046;7.010;2022-07-23T14:28:45;3.60;;;3.03;;
3081;SDS011;1551;51.046;7.010;2022-07-23T14:31:34;3.25;;;2.75;;
3081;SDS011;1551;51.046;7.010;2022-07-23T14:34:24;3.97;;;3.08;;
3081;SDS011;1551;51.046;7.010;2022-07-23T14:37:13;3.90;;;3.00;;
3081;SDS011;1551;51.046;7.010;2022-07-23T14:40:03;4.45;;;3.10;;
3081;SDS011;1551;51.046;7.010;2022-07-23T14:42:53;5.43;;;3.47;;
3081;SDS011;1551;51.046;7.010;2022-07-23T14:45:42;3.95;;;2.90;;
3081;SDS011;1551;51.046;7.010;2022-07-23T14:48:30;3.50;;;2.80;;
3081;SDS011;1551;51.046;7.010;2022-07-23T14:51:19;3.92;;;3.00;;
3081;SDS011;1551;51.046;7.010;2022-07-23T14:54:08;3.70;;;3.00;;
3081;SDS011;1551;51.046;7.010;2022-07-23T14:56:58;4.40;;;2.90;;
3081;SDS011;1551;51.046;7.010;2022-07-23T14:59:49;4.00;;;2.70;;
3081;SDS011;1551;51.046;7.010;2022-07-23T15:02:38;3.57;;;2.73;;
3081;SDS011;1551;51.046;7.010;2022-07-23T15:05:27;3.80;;;3.05;;
3081;SDS011;1551;51.046;7.010;2022-07-23T15:08:17;4.30;;;3.00;;
3081;SDS011;1551;51.046;7.010;2022-07-23T15:11:06;5.20;;;3.30;;
3081;SDS011;1551;51.046;7.010;2022-07-23T15:13:57;4.40;;;3.20;;
3081;SDS011;1551;51.046;7.010;2022-07-23T15:16:47;3.53;;;3.20;;
3081;SDS011;1551;51.046;7.010;2022-07-23T15:19:36;4.28;;;3.35;;
3081;SDS011;1551;51.046;7.010;2022-07-23T15:22:25;5.90;;;3.72;;
3081;SDS011;1551;51.046;7.010;2022-07-23T15:25:14;4.50;;;3.47;;
3081;SDS011;1551;51.046;7.010;2022-07-23T15:28:04;5.20;;;3.40;;
3081;SDS011;1551;51.046;7.010;2022-07-23T15:30:53;4.00;;;3.30;;
3081;SDS011;1551;51.046;7.010;2022-07-23T15:33:42;4.68;;;3.35;;
3081;SDS011;1551;51.046;7.010;2022-07-23T15:36:31;3.30;;;2.97;;
3081;SDS011;1551;51.046;7.010;2022-07-23T15:39:20;4.28;;;2.88;;
3081;SDS011;1551;51.046;7.010;2022-07-23T15:42:09;4.75;;;3.40;;
3081;SDS011;1551;51.046;7.010;2022-07-23T15:44:58;5.20;;;3.38;;
3081;SDS011;1551;51.046;7.010;2022-07-23T15:47:47;3.72;;;2.90;;
3081;SDS011;1551;51.046;7.010;2022-07-23T15:50:37;3.05;;;2.70;;
3081;SDS011;1551;51.046;7.010;2022-07-23T15:53:26;3.20;;;2.80;;
3081;SDS011;1551;51.046;7.010;2022-07-23T15:56:15;3.72;;;2.90;;
3081;SDS011;1551;51.046;7.010;2022-07-23T15:59:04;3.00;;;2.70;;
3081;SDS011;1551;51.046;7.010;2022-07-23T16:01:53;4.85;;;3.05;;
3081;SDS011;1551;51.046;7.010;2022-07-23T16:04:43;7.88;;;6.80;;
3081;SDS011;1551;51.046;7.010;2022-07-23T16:07:32;6.22;;;5.20;;
3081;SDS011;1551;51.046;7.010;2022-07-23T16:10:25;4.85;;;4.35;;
3081;SDS011;1551;51.046;7.010;2022-07-23T16:13:14;3.65;;;3.35;;
3081;SDS011;1551;51.046;7.010;2022-07-23T16:16:03;3.95;;;2.83;;
3081;SDS011;1551;51.046;7.010;2022-07-23T16:18:53;3.55;;;2.92;;
3081;SDS011;1551;51.046;7.010;2022-07-23T16:21:42;4.10;;;3.40;;
3081;SDS011;1551;51.046;7.010;2022-07-23T16:24:32;3.60;;;3.20;;
3081;SDS011;1551;51.046;7.010;2022-07-23T16:27:21;3.70;;;2.70;;
3081;SDS011;1551;51.046;7.010;2022-07-23T16:30:11;4.50;;;3.00;;
3081;SDS011;1551;51.046;7.010;2022-07-23T16:33:01;4.03;;;3.30;;
3081;SDS011;1551;51.046;7.010;2022-07-23T16:35:50;3.72;;;2.97;;
3081;SDS011;1551;51.046;7.010;2022-07-23T16:38:39;4.40;;;3.20;;
3081;SDS011;1551;51.046;7.010;2022-07-23T16:41:28;3.35;;;3.03;;
3081;SDS011;1551;51.046;7.010;2022-07-23T16:44:17;3.20;;;2.80;;
3081;SDS011;1551;51.046;7.010;2022-07-23T16:47:10;4.30;;;2.67;;
3081;SDS011;1551;51.046;7.010;2022-07-23T16:49:59;3.80;;;3.28;;
3081;SDS011;1551;51.046;7.010;2022-07-23T16:52:48;3.58;;;3.17;;
3081;SDS011;1551;51.046;7.010;2022-07-23T16:55:37;3.70;;;3.28;;
3081;SDS011;1551;51.046;7.010;2022-07-23T16:58:26;3.65;;;3.15;;
3081;SDS011;1551;51.046;7.010;2022-07-23T17:01:16;5.50;;;3.20;;
3081;SDS011;1551;51.046;7.010;2022-07-23T17:04:05;3.65;;;2.65;;
3081;SDS011;1551;51.046;7.010;2022-07-23T17:06:55;3.38;;;3.08;;
3081;SDS011;1551;51.046;7.010;2022-07-23T17:09:45;3.15;;;2.85;;
3081;SDS011;1551;51.046;7.010;2022-07-23T17:12:34;3.65;;;3.17;;
3081;SDS011;1551;51.046;7.010;2022-07-23T17:15:23;3.47;;;3.00;;
3081;SDS011;1551;51.046;7.010;2022-07-23T17:18:12;5.80;;;3.20;;
3081;SDS011;1551;51.046;7.010;2022-07-23T17:21:01;3.55;;;2.90;;
3081;SDS011;1551;51.046;7.010;2022-07-23T17:23:52;5.13;;;3.13;;
3081;SDS011;1551;51.046;7.010;2022-07-23T17:26:41;3.70;;;3.20;;
3081;SDS011;1551;51.046;7.010;2022-07-23T17:29:30;3.00;;;2.60;;
3081;SDS011;1551;51.046;7.010;2022-07-23T17:32:19;5.80;;;3.40;;
3081;SDS011;1551;51.046;7.010;2022-07-23T17:35:08;4.10;;;2.92;;
3081;SDS011;1551;51.046;7.010;2022-07-23T17:37:58;4.20;;;2.70;;
3081;SDS011;1551;51.046;7.010;2022-07-23T17:40:47;5.50;;;4.45;;
3081;SDS011;1551;51.046;7.010;2022-07-23T17:43:37;3.33;;;3.03;;
3081;SDS011;1551;51.046;7.010;2022-07-23T17:46:26;4.57;;;3.50;;